Time;durP1;ratioP1;P1;durP2;ratioP2;P2;SDS_P1;SDS_P2;PMS_P1;PMS_P2;Temp;Humidity;BMP_temperature;BMP_pressure;BME280_temperature;BME280_humidity;BME280_pressure;Samples;Min_cycle;Max_cycle;Signal;HPM_P1;HPM_P2
2024/01/17 00:00:54;;;;;;;9.70;5.00;;;;;;;-7.39;66.96;99298.59;107517;1254;60482;-73
2024/01/17 00:03:24;;;;;;;12.50;6.60;;;;;;;-7.45;66.69;99308.86;108005;1254;74592;-74
2024/01/17 00:05:51;;;;;;;18.00;8.90;;;;;;;-7.55;66.85;99314.77;107905;1254;68726;-74
2024/01/17 00:08:19;;;;;;;16.70;8.60;;;;;;;-7.64;67.10;99317.89;105505;1254;71406;-75
2024/01/17 00:10:46;;;;;;;14.40;8.10;;;;;;;-7.62;67.45;99319.00;105472;1256;63163;-73
2024/01/17 00:13:13;;;;;;;13.30;6.90;;;;;;;-7.57;67.50;99328.44;105374;1254;60622;-75
2024/01/17 00:15:41;;;;;;;13.30;6.80;;;;;;;-7.55;67.58;99332.13;105490;1254;74085;-75
2024/01/17 00:18:08;;;;;;;12.20;6.00;;;;;;;-7.54;67.76;99333.98;105690;1260;70576;-75
2024/01/17 00:20:36;;;;;;;13.80;6.90;;;;;;;-7.53;67.76;99337.08;105723;1266;71921;-75
2024/01/17 00:23:03;;;;;;;11.90;6.90;;;;;;;-7.53;67.53;99337.07;105689;1255;61059;-74
2024/01/17 00:25:30;;;;;;;11.30;6.20;;;;;;;-7.54;67.84;99334.51;105972;1260;60408;-73
2024/01/17 00:27:58;;;;;;;11.60;6.60;;;;;;;-7.60;67.50;99337.20;105812;1260;73761;-74
2024/01/17 00:30:25;;;;;;;12.70;6.20;;;;;;;-7.69;67.59;99342.52;105787;1254;69953;-74
2024/01/17 00:32:53;;;;;;;11.80;6.20;;;;;;;-7.77;67.49;99340.77;105652;1261;71666;-76
2024/01/17 00:35:21;;;;;;;14.30;6.50;;;;;;;-7.85;67.69;99343.33;105548;1257;60492;-74
2024/01/17 00:37:48;;;;;;;12.20;5.90;;;;;;;-7.94;68.04;99344.38;105858;1254;60422;-73
2024/01/17 00:40:16;;;;;;;13.10;6.20;;;;;;;-8.02;67.74;99349.36;105745;1254;74473;-76
2024/01/17 00:42:43;;;;;;;11.10;6.20;;;;;;;-8.01;67.86;99350.71;105657;1255;69886;-76
2024/01/17 00:45:13;;;;;;;14.80;6.30;;;;;;;-7.95;67.91;99364.01;105952;1255;72691;-77
2024/01/17 00:47:40;;;;;;;16.00;7.70;;;;;;;-7.91;68.03;99367.49;105814;1259;60450;-77
2024/01/17 00:50:09;;;;;;;14.20;6.30;;;;;;;-7.92;67.88;99374.58;105776;1254;60575;-75
2024/01/17 00:52:36;;;;;;;15.60;6.40;;;;;;;-7.92;67.99;99374.73;105709;1255;73875;-76
2024/01/17 00:55:04;;;;;;;12.20;6.00;;;;;;;-7.92;68.03;99373.52;105832;1254;68727;-76
2024/01/17 00:57:32;;;;;;;14.10;6.70;;;;;;;-7.92;67.95;99367.36;106094;1254;72471;-75
2024/01/17 01:00:00;;;;;;;14.10;6.30;;;;;;;-7.92;68.05;99373.89;107938;1254;60502;-76
2024/01/17 01:02:27;;;;;;;14.20;7.40;;;;;;;-7.98;67.98;99374.13;108077;1257;60326;-75
2024/01/17 01:04:55;;;;;;;13.30;6.30;;;;;;;-8.04;68.28;99372.96;107679;1257;73800;-76
2024/01/17 01:07:22;;;;;;;10.90;5.70;;;;;;;-8.10;68.56;99375.95;105603;1260;68719;-75
2024/01/17 01:09:50;;;;;;;11.30;6.10;;;;;;;-8.17;68.43;99376.73;105634;1257;71544;-75
2024/01/17 01:12:20;;;;;;;9.60;4.90;;;;;;;-8.25;68.41;99375.00;105685;1258;60555;-75
2024/01/17 01:14:47;;;;;;;14.30;5.70;;;;;;;-8.27;68.38;99372.85;105788;1258;60848;-75
2024/01/17 01:17:15;;;;;;;11.00;5.10;;;;;;;-8.18;68.56;99371.28;105740;1256;72598;-76
2024/01/17 01:19:42;;;;;;;12.00;5.10;;;;;;;-8.11;68.48;99375.81;105612;1257;68828;-76
2024/01/17 01:22:10;;;;;;;12.10;6.20;;;;;;;-8.05;68.63;99377.33;105739;1257;70573;-75
2024/01/17 01:24:37;;;;;;;8.30;4.60;;;;;;;-8.02;68.54;99379.27;105750;1255;61040;-75
2024/01/17 01:27:04;;;;;;;11.10;5.50;;;;;;;-8.00;68.56;99379.02;105819;1254;60553;-75
2024/01/17 01:29:32;;;;;;;10.70;5.80;;;;;;;-8.05;68.51;99385.05;105845;1260;73857;-74
2024/01/17 01:31:59;;;;;;;11.40;5.30;;;;;;;-8.12;68.27;99382.55;106084;1258;68891;-75
2024/01/17 01:34:27;;;;;;;13.60;6.80;;;;;;;-8.17;68.28;99387.23;106191;1258;72661;-75
2024/01/17 01:36:54;;;;;;;13.50;6.20;;;;;;;-8.25;68.25;99388.73;105897;1259;60529;-75
2024/01/17 01:39:22;;;;;;;11.70;6.10;;;;;;;-8.34;68.39;99391.31;105998;1255;60390;-75
2024/01/17 01:41:49;;;;;;;8.40;5.10;;;;;;;-8.36;68.54;99395.35;105895;1254;73917;-75
2024/01/17 01:44:17;;;;;;;11.30;5.40;;;;;;;-8.27;68.50;99396.54;105374;1260;69171;-76
2024/01/17 01:46:47;;;;;;;11.90;4.60;;;;;;;-8.21;68.42;99396.30;105788;1254;71402;-75
2024/01/17 01:49:15;;;;;;;11.30;5.80;;;;;;;-8.15;68.44;99402.95;105335;1254;60921;-76
2024/01/17 01:51:44;;;;;;;9.00;5.40;;;;;;;-8.13;68.47;99413.19;105684;1257;60319;-76
2024/01/17 01:54:13;;;;;;;12.90;4.90;;;;;;;-8.11;68.60;99415.17;105584;1254;74342;-76
2024/01/17 01:56:41;;;;;;;11.60;5.90;;;;;;;-8.16;68.50;99419.66;105928;1258;68139;-76
2024/01/17 01:59:09;;;;;;;13.00;5.60;;;;;;;-8.28;68.61;99424.39;106638;1254;70732;-75
2024/01/17 02:01:36;;;;;;;12.30;5.80;;;;;;;-8.37;68.62;99425.25;108198;1254;60048;-76
2024/01/17 02:04:04;;;;;;;12.70;5.80;;;;;;;-8.44;68.86;99423.31;108000;1254;60508;-76
2024/01/17 02:06:33;;;;;;;12.50;5.30;;;;;;;-8.51;68.77;99429.06;105714;1260;73889;-74
2024/01/17 02:09:01;;;;;;;14.50;5.50;;;;;;;-8.53;68.79;99429.81;105627;1259;70534;-76
2024/01/17 02:11:29;;;;;;;12.20;5.70;;;;;;;-8.41;68.87;99429.89;105829;1254;72719;-74
2024/01/17 02:13:58;;;;;;;9.70;5.00;;;;;;;-8.32;68.71;99434.35;105517;1260;60863;-74
2024/01/17 02:16:25;;;;;;;7.70;4.40;;;;;;;-8.28;68.58;99440.22;105864;1267;60479;-73
2024/01/17 02:18:53;;;;;;;11.80;5.40;;;;;;;-8.25;68.62;99444.25;105472;1254;73959;-74
2024/01/17 02:21:22;;;;;;;11.60;5.50;;;;;;;-8.21;68.46;99448.39;105496;1260;69407;-75
2024/01/17 02:23:50;;;;;;;17.40;8.30;;;;;;;-8.18;68.47;99458.92;105739;1254;72740;-75
2024/01/17 02:26:18;;;;;;;16.90;8.30;;;;;;;-8.18;68.34;99454.81;105623;1256;222263;-75
2024/01/17 02:30:57;;;;;;;12.10;6.80;;;;;;;-8.19;68.34;99452.59;102884;1289;600998;-75
2024/01/17 02:33:25;;;;;;;14.90;6.40;;;;;;;-8.30;68.01;99454.03;104862;1267;59276;-75
2024/01/17 02:35:53;;;;;;;14.90;6.30;;;;;;;-8.40;68.39;99463.00;105221;1269;59446;-75
2024/01/17 02:38:20;;;;;;;12.90;7.20;;;;;;;-8.48;68.52;99465.36;104967;1267;70119;-75
2024/01/17 02:40:47;;;;;;;15.70;7.00;;;;;;;-8.56;68.52;99464.28;105098;1265;69035;-75
2024/01/17 02:43:15;;;;;;;13.00;6.10;;;;;;;-8.63;68.59;99469.00;105053;1267;72660;-74
2024/01/17 02:45:42;;;;;;;11.70;6.00;;;;;;;-8.57;68.65;99467.08;105381;1255;173164;-75
2024/01/17 02:48:09;;;;;;;12.60;6.10;;;;;;;-8.49;68.65;99464.54;105483;1262;59144;-75
2024/01/17 02:50:39;;;;;;;14.70;6.20;;;;;;;-8.43;68.80;99471.52;105559;1256;72744;-75
2024/01/17 02:53:06;;;;;;;13.90;7.10;;;;;;;-8.38;68.56;99480.59;105755;1255;69104;-75
2024/01/17 02:55:34;;;;;;;14.80;7.10;;;;;;;-8.36;68.63;99481.39;105718;1261;72114;-73
2024/01/17 02:58:01;;;;;;;14.00;7.70;;;;;;;-8.35;68.47;99488.38;106809;1257;59513;-74
2024/01/17 03:00:28;;;;;;;15.30;6.30;;;;;;;-8.40;68.58;99485.52;108850;1254;59214;-74
2024/01/17 03:02:56;;;;;;;12.10;6.20;;;;;;;-8.49;68.57;99489.44;107909;1255;71458;-74
2024/01/17 03:05:23;;;;;;;14.10;6.90;;;;;;;-8.56;68.69;99489.36;105944;1257;70627;-74
2024/01/17 03:07:51;;;;;;;15.00;8.10;;;;;;;-8.66;68.87;99491.95;105585;1257;71507;-74
2024/01/17 03:10:18;;;;;;;11.50;5.80;;;;;;;-8.75;69.17;99496.52;105612;1257;60074;-73
2024/01/17 03:12:46;;;;;;;13.90;7.00;;;;;;;-8.78;69.05;99499.38;105359;1257;59792;-74
2024/01/17 03:15:13;;;;;;;11.50;6.50;;;;;;;-8.71;69.10;99502.94;105251;1257;73421;-74
2024/01/17 03:17:41;;;;;;;13.90;6.40;;;;;;;-8.65;69.07;99507.36;105369;1254;69929;-74
2024/01/17 03:20:10;;;;;;;12.10;6.50;;;;;;;-8.64;68.89;99512.63;105412;1257;72507;-74
2024/01/17 03:22:39;;;;;;;15.30;7.10;;;;;;;-8.62;69.11;99511.56;105429;1256;59663;-74
2024/01/17 03:25:08;;;;;;;13.60;6.80;;;;;;;-8.60;69.08;99512.85;105512;1259;60086;-75
2024/01/17 03:27:35;;;;;;;14.80;6.80;;;;;;;-8.60;69.05;99514.21;105307;1254;73002;-75
2024/01/17 03:30:04;;;;;;;16.30;6.80;;;;;;;-8.61;69.08;99513.73;105510;1260;69193;-75
2024/01/17 03:32:32;;;;;;;13.20;6.60;;;;;;;-8.61;69.19;99516.30;105777;1257;71609;-76
2024/01/17 03:35:00;;;;;;;14.40;6.50;;;;;;;-8.67;69.37;99514.31;106070;1258;59641;-76
2024/01/17 03:37:28;;;;;;;12.80;6.80;;;;;;;-8.74;69.19;99515.05;106340;1263;59545;-76
2024/01/17 03:39:55;;;;;;;11.70;6.50;;;;;;;-8.82;69.48;99515.15;106277;1257;71631;-76
2024/01/17 03:42:22;;;;;;;14.50;7.00;;;;;;;-8.90;69.35;99515.23;106526;1258;70185;-75
2024/01/17 03:44:50;;;;;;;16.80;6.80;;;;;;;-8.97;69.46;99523.35;105469;1259;71343;-76
2024/01/17 03:47:17;;;;;;;12.30;6.90;;;;;;;-8.94;69.45;99527.71;105602;1257;61777;-75
2024/01/17 03:49:45;;;;;;;14.30;6.00;;;;;;;-8.86;69.83;99525.07;105674;1257;60129;-75
2024/01/17 03:52:12;;;;;;;10.30;6.30;;;;;;;-8.80;69.56;99527.79;105887;1257;72003;-75
2024/01/17 03:54:40;;;;;;;11.90;6.50;;;;;;;-8.74;69.47;99532.89;106082;1257;68716;-77
2024/01/17 03:57:08;;;;;;;10.50;5.80;;;;;;;-8.69;69.58;99533.75;106608;1257;72677;-77
2024/01/17 03:59:37;;;;;;;15.20;7.90;;;;;;;-8.65;69.54;99539.30;107200;1257;59656;-77
2024/01/17 04:02:04;;;;;;;16.40;8.40;;;;;;;-8.63;69.47;99545.23;108058;1256;59548;-75
2024/01/17 04:04:32;;;;;;;29.50;12.00;;;;;;;-8.69;69.54;99545.61;107949;1257;73081;-76
2024/01/17 04:06:59;;;;;;;26.70;11.90;;;;;;;-8.80;69.43;99545.44;108062;1257;69165;-75
2024/01/17 04:09:26;;;;;;;27.50;12.10;;;;;;;-8.92;69.53;99544.47;107323;1257;71092;-75
2024/01/17 04:11:54;;;;;;;23.20;9.90;;;;;;;-9.01;69.63;99547.52;106802;1257;59675;-75
2024/01/17 04:14:21;;;;;;;20.50;8.30;;;;;;;-9.07;69.85;99544.98;105769;1260;60251;-76
2024/01/17 04:16:49;;;;;;;15.60;7.90;;;;;;;-9.03;70.09;99546.36;105928;1256;73070;-76
2024/01/17 04:19:16;;;;;;;14.00;7.10;;;;;;;-8.97;69.81;99549.43;105667;1257;70026;-76
2024/01/17 04:21:43;;;;;;;11.30;6.60;;;;;;;-8.95;69.78;99543.53;105764;1257;71264;-75
2024/01/17 04:24:11;;;;;;;12.90;7.00;;;;;;;-8.92;69.80;99544.15;105742;1258;60936;-77
2024/01/17 04:26:38;;;;;;;12.50;7.00;;;;;;;-8.90;69.93;99543.88;105720;1257;59737;-76
2024/01/17 04:29:06;;;;;;;14.40;6.50;;;;;;;-8.88;69.92;99545.39;105800;1262;70834;-77
2024/01/17 04:31:33;;;;;;;13.50;6.40;;;;;;;-8.95;69.94;99549.91;105879;1260;68838;-77
2024/01/17 04:34:03;;;;;;;15.20;7.30;;;;;;;-9.08;69.92;99549.79;106138;1258;72740;-76
2024/01/17 04:36:31;;;;;;;14.30;7.50;;;;;;;-9.19;70.09;99556.52;106129;1262;59717;-77
2024/01/17 04:39:00;;;;;;;13.50;7.10;;;;;;;-9.27;70.24;99562.94;105954;1256;59606;-77
2024/01/17 04:41:28;;;;;;;16.40;7.00;;;;;;;-9.33;70.65;99563.11;105600;1257;71857;-76
2024/01/17 04:43:55;;;;;;;14.40;6.30;;;;;;;-9.26;70.58;99565.48;105499;1257;70356;-78
2024/01/17 04:46:23;;;;;;;15.10;7.50;;;;;;;-9.17;70.43;99570.71;107322;1256;72630;-77
2024/01/17 04:48:50;;;;;;;15.30;8.00;;;;;;;-9.11;70.47;99576.14;108205;1257;59580;-76
2024/01/17 04:51:21;;;;;;;15.80;8.00;;;;;;;-9.04;70.72;99576.64;108560;1253;59422;-76
2024/01/17 04:53:49;;;;;;;13.90;7.50;;;;;;;-9.04;70.55;99583.64;107980;1253;71799;-74
2024/01/17 04:56:17;;;;;;;15.00;8.10;;;;;;;-9.13;70.43;99588.73;108210;1259;68704;-75
2024/01/17 04:58:44;;;;;;;17.20;8.40;;;;;;;-9.21;70.52;99595.17;108427;1254;71165;-75
2024/01/17 05:01:12;;;;;;;19.80;8.60;;;;;;;-9.29;70.68;99597.12;108760;1252;59166;-76
2024/01/17 05:03:45;;;;;;;19.10;7.60;;;;;;;-9.35;70.70;99603.31;107030;1257;59695;-75
2024/01/17 05:06:12;;;;;;;18.70;8.30;;;;;;;-9.30;70.61;99609.33;106075;1252;71736;-75
2024/01/17 05:08:40;;;;;;;16.80;9.00;;;;;;;-9.23;70.53;99615.81;105858;1260;68931;-75
2024/01/17 05:11:07;;;;;;;18.30;8.50;;;;;;;-9.21;70.68;99613.18;105904;1254;72687;-74
2024/01/17 05:13:36;;;;;;;16.80;8.60;;;;;;;-9.19;70.39;99611.60;105868;1258;60859;-76
2024/01/17 05:16:04;;;;;;;21.10;8.20;;;;;;;-9.15;70.61;99615.92;105849;1254;60019;-75
2024/01/17 05:18:31;;;;;;;16.50;8.20;;;;;;;-9.12;70.68;99616.32;106017;1252;71823;-75
2024/01/17 05:21:00;;;;;;;12.70;7.40;;;;;;;-9.14;70.52;99618.64;105910;1257;68707;-76
2024/01/17 05:23:28;;;;;;;17.00;8.30;;;;;;;-9.23;70.65;99625.94;106108;1254;71778;-74
2024/01/17 05:25:55;;;;;;;15.00;8.10;;;;;;;-9.31;70.91;99630.13;105773;1254;60102;-75
2024/01/17 05:28:23;;;;;;;16.50;8.30;;;;;;;-9.38;70.79;99642.30;106078;1252;59664;-76
2024/01/17 05:30:50;;;;;;;18.20;8.60;;;;;;;-9.45;70.92;99644.78;105857;1254;73402;-76
2024/01/17 05:33:17;;;;;;;18.00;8.20;;;;;;;-9.48;70.94;99648.80;105644;1257;69016;-76
2024/01/17 05:35:45;;;;;;;10.60;6.70;;;;;;;-9.41;70.89;99655.11;105769;1254;72625;-76
2024/01/17 05:38:13;;;;;;;14.10;6.60;;;;;;;-9.35;70.68;99660.27;105869;1253;59610;-79
2024/01/17 05:40:40;;;;;;;16.80;7.90;;;;;;;-9.31;70.64;99664.25;106128;1257;60075;-77
2024/01/17 05:43:08;;;;;;;13.00;6.60;;;;;;;-9.28;70.61;99673.08;105938;1253;71811;-76
2024/01/17 05:45:36;;;;;;;14.30;7.10;;;;;;;-9.24;70.90;99673.84;105917;1252;69301;-76
2024/01/17 05:48:03;;;;;;;18.70;8.50;;;;;;;-9.23;70.58;99679.48;106091;1254;72711;-76
2024/01/17 05:50:31;;;;;;;28.30;11.20;;;;;;;-9.21;70.62;99687.81;105973;1252;59607;-77
2024/01/17 05:52:58;;;;;;;13.80;7.00;;;;;;;-9.26;70.54;99697.39;107118;1253;60269;-78
2024/01/17 05:55:26;;;;;;;15.20;7.30;;;;;;;-9.33;70.70;99703.93;106640;1254;71543;-76
2024/01/17 05:57:54;;;;;;;13.50;7.30;;;;;;;-9.41;70.65;99708.10;108381;1253;70131;-76
2024/01/17 06:00:22;;;;;;;13.10;7.20;;;;;;;-9.48;70.90;99706.41;109148;1253;71556;-78
2024/01/17 06:02:49;;;;;;;13.90;7.90;;;;;;;-9.51;70.68;99712.66;107767;1254;60361;-80
2024/01/17 06:05:16;;;;;;;13.90;6.80;;;;;;;-9.41;70.58;99712.73;106733;1252;60238;-79
2024/01/17 06:07:44;;;;;;;20.60;9.40;;;;;;;-9.34;70.60;99719.23;106582;1254;73184;-79
2024/01/17 06:10:13;;;;;;;23.20;11.20;;;;;;;-9.31;70.85;99720.84;108299;1251;68939;-79
2024/01/17 06:12:45;;;;;;;;;;;;;;;-9.30;71.00;99724.94;109141;1254;71404;-80
2024/01/17 06:15:12;;;;;;;22.80;9.80;;;;;;;-9.29;70.62;99725.60;106622;1252;60966;-79
2024/01/17 06:17:40;;;;;;;20.50;11.40;;;;;;;-9.30;70.53;99725.79;106691;1256;59524;-80
2024/01/17 06:20:09;;;;;;;28.00;13.00;;;;;;;-9.32;70.62;99725.34;106545;1254;73078;-78
2024/01/17 06:22:38;;;;;;;26.50;10.90;;;;;;;-9.33;70.66;99727.25;106417;1254;68744;-79
2024/01/17 06:25:06;;;;;;;23.80;9.60;;;;;;;-9.29;70.90;99725.79;106094;1254;72724;-79
2024/01/17 06:27:34;;;;;;;22.50;10.10;;;;;;;-9.24;70.64;99731.80;105920;1254;59767;-79
2024/01/17 06:30:02;;;;;;;17.80;9.50;;;;;;;-9.26;70.74;99738.57;106016;1255;60006;-79
2024/01/17 06:32:30;;;;;;;26.30;11.00;;;;;;;-9.35;70.77;99749.44;105995;1257;73170;-79
2024/01/17 06:34:58;;;;;;;21.80;10.80;;;;;;;-9.43;70.77;99760.64;106473;1254;69144;-80
2024/01/17 06:37:25;;;;;;;25.00;12.80;;;;;;;-9.53;70.80;99764.52;106745;1256;71481;-80
2024/01/17 06:39:53;;;;;;;25.60;10.90;;;;;;;-9.54;70.97;99764.70;106142;1258;60548;-81
2024/01/17 06:42:20;;;;;;;19.40;10.00;;;;;;;-9.42;70.87;99766.80;106069;1254;60616;-79
2024/01/17 06:44:47;;;;;;;19.10;9.40;;;;;;;-9.31;70.82;99767.51;105808;1254;73633;-80
2024/01/17 06:47:16;;;;;;;20.80;8.90;;;;;;;-9.22;71.02;99767.79;106055;1256;68734;-80
2024/01/17 06:49:43;;;;;;;15.50;7.70;;;;;;;-9.17;70.82;99776.55;106074;1253;71385;-79
2024/01/17 06:52:11;;;;;;;22.70;10.00;;;;;;;-9.09;70.70;99778.23;106386;1253;60842;-81
2024/01/17 06:54:38;;;;;;;18.60;9.40;;;;;;;-9.04;70.41;99774.84;106855;1253;60546;-82
2024/01/17 06:57:07;;;;;;;22.20;11.20;;;;;;;-9.00;70.55;99781.06;107986;1253;73821;-80
2024/01/17 06:59:37;;;;;;;17.10;9.00;;;;;;;-9.00;70.64;99781.58;108586;1253;68672;-79
2024/01/17 07:02:05;;;;;;;19.20;10.40;;;;;;;-9.00;70.56;99784.66;107556;1254;71671;-80
2024/01/17 07:04:33;;;;;;;19.10;9.70;;;;;;;-9.02;70.47;99784.55;107169;1253;60457;-81
2024/01/17 07:07:00;;;;;;;18.50;8.80;;;;;;;-9.02;70.37;99788.16;106898;1259;60485;-81
2024/01/17 07:09:28;;;;;;;16.40;9.20;;;;;;;-9.03;70.17;99790.25;106880;1254;73782;-81
2024/01/17 07:11:56;;;;;;;19.00;9.90;;;;;;;-8.96;70.34;99789.88;106557;1251;69059;-81
2024/01/17 07:14:25;;;;;;;16.70;8.30;;;;;;;-8.77;70.12;99788.98;106657;1253;71445;-80
2024/01/17 07:16:53;;;;;;;19.40;9.40;;;;;;;-8.64;69.93;99794.58;108275;1254;59605;-80
2024/01/17 07:19:20;;;;;;;19.10;8.80;;;;;;;-8.54;69.49;99792.74;107457;1251;61084;-82
2024/01/17 07:21:49;;;;;;;18.30;8.50;;;;;;;-8.43;69.49;99789.66;107923;1251;72989;-81
2024/01/17 07:24:16;;;;;;;19.40;9.90;;;;;;;-8.37;69.34;99783.76;106278;1256;69131;-81
2024/01/17 07:26:44;;;;;;;17.30;9.30;;;;;;;-8.38;69.11;99788.09;106193;1256;71640;-81
2024/01/17 07:29:12;;;;;;;13.70;7.60;;;;;;;-8.37;69.26;99786.71;106127;1254;60874;-82
2024/01/17 07:31:39;;;;;;;16.00;9.20;;;;;;;-8.37;69.08;99789.61;105975;1254;60648;-81
2024/01/17 07:34:07;;;;;;;19.70;9.20;;;;;;;-8.39;69.00;99791.91;106034;1251;72593;-80
2024/01/17 07:36:34;;;;;;;20.30;10.20;;;;;;;-8.40;68.84;99796.08;106025;1254;68663;-82
2024/01/17 07:39:02;;;;;;;21.40;9.90;;;;;;;-8.39;68.59;99796.40;105977;1251;72772;-81
2024/01/17 07:41:29;;;;;;;19.50;8.50;;;;;;;-8.22;68.54;99805.11;105982;1255;61849;-81
2024/01/17 07:43:57;;;;;;;16.60;8.10;;;;;;;-8.05;68.19;99803.05;106426;1254;62012;-80
2024/01/17 07:46:24;;;;;;;18.90;10.10;;;;;;;-7.96;68.14;99808.08;106067;1251;72596;-79
2024/01/17 07:48:52;;;;;;;23.60;11.70;;;;;;;-7.86;68.17;99812.77;106054;1254;69428;-80
2024/01/17 07:51:19;;;;;;;19.80;10.50;;;;;;;-7.79;68.17;99816.48;106327;1254;71476;-79
2024/01/17 07:53:47;;;;;;;21.30;11.10;;;;;;;-7.74;68.02;99817.14;106897;1253;60523;-79
2024/01/17 07:56:15;;;;;;;26.00;12.30;;;;;;;-7.71;67.86;99814.65;107690;1251;59243;-79
2024/01/17 07:58:42;;;;;;;26.60;12.30;;;;;;;-7.65;67.73;99820.30;109161;1251;74865;-81
2024/01/17 08:01:10;;;;;;;20.50;12.80;;;;;;;-7.60;67.58;99822.55;107368;1256;68700;-80
2024/01/17 08:03:37;;;;;;;17.60;9.70;;;;;;;-7.53;67.58;99824.36;106515;1251;74956;-79
2024/01/17 08:06:05;;;;;;;24.00;11.00;;;;;;;-7.50;66.84;99823.42;106685;1251;61340;-80
2024/01/17 08:08:33;;;;;;;23.30;12.00;;;;;;;-7.48;67.06;99824.38;106296;1252;60542;-80
2024/01/17 08:11:00;;;;;;;21.50;11.20;;;;;;;-7.42;67.03;99825.89;106177;1256;74148;-79
2024/01/17 08:13:28;;;;;;;21.30;11.40;;;;;;;-7.27;67.10;99829.01;106638;1257;69279;-80
2024/01/17 08:15:55;;;;;;;19.20;11.80;;;;;;;-6.98;66.94;99824.53;106975;1256;72689;-81
2024/01/17 08:18:23;;;;;;;19.60;11.00;;;;;;;-6.76;66.25;99823.22;106656;1256;60414;-82
2024/01/17 08:20:51;;;;;;;21.10;11.60;;;;;;;-6.66;65.77;99826.30;106534;1257;60376;-79
2024/01/17 08:23:18;;;;;;;18.40;10.50;;;;;;;-6.60;66.06;99829.34;107849;1251;72628;-80
2024/01/17 08:25:47;;;;;;;23.40;10.50;;;;;;;-6.55;65.78;99836.05;108167;1251;67897;-80
2024/01/17 08:28:14;;;;;;;18.30;9.20;;;;;;;-6.48;65.63;99842.30;106770;1254;71050;-81
2024/01/17 08:30:42;;;;;;;23.20;11.00;;;;;;;-6.39;65.19;99845.41;106128;1251;62051;-79
2024/01/17 08:33:09;;;;;;;20.30;10.50;;;;;;;-6.25;65.62;99854.88;106078;1253;60474;-80
2024/01/17 08:35:37;;;;;;;18.30;9.40;;;;;;;-5.96;65.53;99856.85;106212;1253;75963;-79
2024/01/17 08:38:04;;;;;;;20.40;11.30;;;;;;;-5.70;64.91;99852.88;107138;1251;70012;-79
2024/01/17 08:40:33;;;;;;;21.10;11.50;;;;;;;-5.49;64.62;99847.52;106245;1254;73964;-77
2024/01/17 08:43:04;;;;;;;17.90;8.70;;;;;;;-5.17;64.85;99845.31;105953;1254;62374;-78
2024/01/17 08:45:32;;;;;;;16.70;9.40;;;;;;;-4.81;64.27;99849.44;105976;1254;60549;-78
2024/01/17 08:47:59;;;;;;;20.40;11.00;;;;;;;-4.44;63.97;99855.54;105966;1251;76045;-78
2024/01/17 08:50:27;;;;;;;21.00;11.40;;;;;;;-4.10;63.13;99859.69;106120;1252;70605;-79
2024/01/17 08:52:54;;;;;;;20.60;9.90;;;;;;;-3.74;63.13;99860.90;106393;1257;72797;-78
2024/01/17 08:55:22;;;;;;;20.50;10.10;;;;;;;-3.37;62.08;99866.36;107316;1252;62628;-79
2024/01/17 08:57:49;;;;;;;19.00;10.10;;;;;;;-3.02;61.80;99872.04;109086;1251;60700;-80
2024/01/17 09:00:17;;;;;;;21.10;10.80;;;;;;;-2.68;60.77;99870.45;108826;1254;72542;-79
2024/01/17 09:02:44;;;;;;;17.80;10.50;;;;;;;-2.35;60.43;99869.73;107041;1251;71175;-78
2024/01/17 09:05:12;;;;;;;15.40;9.30;;;;;;;-2.03;58.94;99868.20;107147;1251;71492;-79
2024/01/17 09:07:43;;;;;;;14.70;9.00;;;;;;;-1.85;57.10;99863.89;108136;1256;59291;-77
2024/01/17 09:10:13;;;;;;;20.00;10.40;;;;;;;-1.88;56.26;99864.05;108362;1253;60473;-81
2024/01/17 09:12:40;;;;;;;19.80;10.70;;;;;;;-1.71;57.35;99863.80;108130;1256;76181;-79
2024/01/17 09:15:08;;;;;;;14.70;9.70;;;;;;;-1.28;56.63;99866.20;106327;1257;72630;-80
2024/01/17 09:17:36;;;;;;;15.30;9.60;;;;;;;-0.86;55.55;99866.31;106881;1254;72755;-81
2024/01/17 09:20:06;;;;;;;13.10;9.30;;;;;;;-0.40;55.29;99866.12;106290;1254;61703;-80
2024/01/17 09:22:34;;;;;;;16.70;10.40;;;;;;;0.01;53.98;99867.08;106313;1251;60412;-81
2024/01/17 09:25:02;;;;;;;14.40;9.90;;;;;;;0.46;53.65;99865.52;106334;1251;76052;-81
2024/01/17 09:27:30;;;;;;;15.10;9.80;;;;;;;1.00;52.62;99863.55;106335;1257;70881;-81
2024/01/17 09:29:58;;;;;;;16.30;9.70;;;;;;;1.61;51.95;99866.49;106497;1256;74723;-80
2024/01/17 09:32:26;;;;;;;15.30;9.60;;;;;;;2.10;51.09;99870.58;106475;1254;60519;-81
2024/01/17 09:34:53;;;;;;;15.50;10.00;;;;;;;2.47;50.10;99874.52;106906;1257;60077;-81
2024/01/17 09:37:21;;;;;;;16.20;10.40;;;;;;;2.89;49.25;99870.71;106371;1254;73987;-80
2024/01/17 09:39:48;;;;;;;17.30;10.60;;;;;;;3.30;48.14;99869.48;106164;1252;70775;-82
2024/01/17 09:42:16;;;;;;;14.20;9.90;;;;;;;3.73;47.51;99866.32;106090;1254;73000;-80
2024/01/17 09:44:43;;;;;;;12.10;9.40;;;;;;;4.11;46.69;99864.69;106134;1253;60348;-81
2024/01/17 09:47:12;;;;;;;11.80;8.60;;;;;;;4.73;46.92;99859.59;106605;1251;60345;-79
2024/01/17 09:49:40;;;;;;;13.30;9.30;;;;;;;5.50;47.35;99858.24;106738;1256;74235;-79
2024/01/17 09:52:07;;;;;;;10.80;8.00;;;;;;;6.02;45.00;99855.98;106675;1251;70332;-78
2024/01/17 09:54:41;;;;;;;13.30;8.60;;;;;;;6.55;44.66;99855.30;106900;1252;72273;-80
2024/01/17 09:57:19;;;;;;;12.60;9.80;;;;;;;7.25;43.28;99856.95;108872;1251;59151;-80
2024/01/17 09:59:56;;;;;;;20.50;16.70;;;;;;;7.88;43.40;99855.92;108241;1257;60266;-81
2024/01/17 10:02:25;;;;;;;17.10;15.20;;;;;;;8.46;45.76;99852.43;106493;1251;72650;-80
2024/01/17 10:04:53;;;;;;;15.40;10.80;;;;;;;8.90;44.23;99859.22;106210;1254;69639;-80
2024/01/17 10:07:21;;;;;;;11.40;9.10;;;;;;;9.21;46.80;99850.66;106075;1254;73114;-80
2024/01/17 10:09:49;;;;;;;13.30;9.80;;;;;;;9.44;49.18;99853.00;105971;1256;60514;-79
2024/01/17 10:12:19;;;;;;;13.70;9.40;;;;;;;9.43;48.22;99848.23;106020;1254;62409;-84
2024/01/17 10:14:47;;;;;;;15.60;10.80;;;;;;;9.05;48.43;99845.20;106301;1251;72683;-82
2024/01/17 10:17:14;;;;;;;13.80;10.00;;;;;;;8.83;48.48;99845.95;107051;1251;71365;-83
2024/01/17 10:19:42;;;;;;;12.20;9.80;;;;;;;8.85;43.45;99838.89;106132;1257;74984;-83
2024/01/17 10:22:10;;;;;;;12.80;9.30;;;;;;;8.52;40.06;99835.28;107379;1251;60435;-81
2024/01/17 10:24:41;;;;;;;12.00;9.30;;;;;;;8.51;40.55;99836.91;107504;1254;60447;-81
2024/01/17 10:27:09;;;;;;;14.20;9.20;;;;;;;8.71;39.60;99831.75;107522;1251;73947;-81
2024/01/17 10:29:37;;;;;;;11.50;8.70;;;;;;;8.81;39.06;99840.16;107829;1254;70689;-83
2024/01/17 10:32:05;;;;;;;13.00;9.00;;;;;;;9.19;38.56;99841.93;106909;1254;73757;-81
2024/01/17 10:34:33;;;;;;;11.70;8.10;;;;;;;9.67;38.15;99837.74;107131;1254;59287;-83
2024/01/17 10:37:03;;;;;;;11.90;8.30;;;;;;;10.31;37.98;99837.24;107191;1251;62417;-85
2024/01/17 10:39:30;;;;;;;13.40;9.10;;;;;;;10.78;36.16;99830.29;107579;1251;73822;-82
2024/01/17 10:41:59;;;;;;;13.90;9.40;;;;;;;10.60;35.29;99825.60;107225;1251;68829;-81
2024/01/17 10:44:27;;;;;;;10.40;8.30;;;;;;;10.51;35.90;99825.36;107611;1251;74575;-82
2024/01/17 10:46:56;;;;;;;10.70;8.50;;;;;;;10.82;36.25;99828.67;107710;1251;60290;-82
2024/01/17 10:49:23;;;;;;;11.50;8.70;;;;;;;11.49;35.32;99823.46;106793;1251;60904;-82
2024/01/17 10:51:58;;;;;;;11.80;7.90;;;;;;;12.00;33.96;99824.02;106155;1256;73868;-81
2024/01/17 10:54:29;;;;;;;10.60;7.70;;;;;;;12.11;33.39;99824.13;106888;1251;71727;-82
2024/01/17 10:56:56;;;;;;;8.60;6.90;;;;;;;12.08;33.40;99819.35;109273;1258;71491;-82
2024/01/17 10:59:24;;;;;;;9.20;7.70;;;;;;;12.38;33.91;99814.45;109175;1251;58938;-83
2024/01/17 11:01:51;;;;;;;10.50;6.60;;;;;;;12.94;33.45;99808.45;106972;1251;60434;-83
2024/01/17 11:04:34;;;;;;;11.10;8.50;;;;;;;13.39;32.67;99807.26;106811;1258;73650;-81
2024/01/17 11:07:02;;;;;;;17.70;12.10;;;;;;;13.75;31.77;99806.57;106061;1254;70499;-81
2024/01/17 11:09:30;;;;;;;30.70;19.90;;;;;;;13.88;31.28;99807.30;105787;1258;72719;-82
2024/01/17 11:11:58;;;;;;;27.10;18.10;;;;;;;13.70;31.40;99802.07;105738;1259;60542;-82
2024/01/17 11:14:27;;;;;;;30.60;20.40;;;;;;;13.70;32.31;99801.05;106283;1254;60347;-82
2024/01/17 11:16:56;;;;;;;26.40;18.30;;;;;;;14.10;31.86;99806.48;106399;1257;74964;-81
2024/01/17 11:19:24;;;;;;;26.40;18.40;;;;;;;14.11;30.54;99801.91;106213;1254;70485;-81
2024/01/17 11:21:52;;;;;;;27.60;18.00;;;;;;;13.83;31.07;99795.77;106283;1260;74710;-81